Denver, Colorado
Traffic Map
Current Weather Conditions
Denver, Colorado
Few Clouds
Few Clouds
50°
Feels Like: 48°
Wind Chill: 48° Ceiling: Unl
Heat Index: 50° Visibility: 10mi
Dew Point: 18° Wind: 6mph
Humidity: 28% Direction: 160° (SSE)
Pressure: 29.6in Gusts: 0mph
Raw Report DataKBKF 191758Z 16005KT 10SM FEW220 10/M08 A2960 RMK A2OA SLP010 T00991079 10099 21015 58004
Traffic Incident Summary
Active as of:
Severity:
Category:
InformationThere was an issue retrieving the traffic information for this location. Please try a different location or try again shortly.
Advertisements
Track Severe Weather on mobile